Time;durP1;ratioP1;P1;durP2;ratioP2;P2;SDS_P1;SDS_P2;PMS_P1;PMS_P2;Temp;Humidity;BMP_temperature;BMP_pressure;BME280_temperature;BME280_humidity;BME280_pressure;Samples;Min_cycle;Max_cycle;Signal;HPM_P1;HPM_P2
2024/02/19 00:02:09;;;;;;;1.70;1.23;;;;;;;8.58;100.00;99082.06;5019978;28;20232;-79
2024/02/19 00:04:36;;;;;;;1.87;1.40;;;;;;;8.62;100.00;99081.00;5019353;28;20216;-78
2024/02/19 00:07:02;;;;;;;1.40;1.30;;;;;;;8.64;100.00;99080.94;5019452;28;20212;-79
2024/02/19 00:09:30;;;;;;;1.07;0.97;;;;;;;8.63;100.00;99080.09;5018228;28;20210;-78
2024/02/19 00:11:56;;;;;;;1.67;1.20;;;;;;;8.61;100.00;99091.63;5019308;28;20304;-79
2024/02/19 00:14:23;;;;;;;1.20;1.07;;;;;;;8.65;100.00;99082.66;5018816;28;20213;-78
2024/02/19 00:16:49;;;;;;;1.00;0.90;;;;;;;8.66;100.00;99081.72;5018841;28;20591;-78
2024/02/19 00:19:16;;;;;;;0.70;0.67;;;;;;;8.69;100.00;99081.59;5018946;28;20232;-78
2024/02/19 00:21:42;;;;;;;0.50;0.50;;;;;;;8.71;100.00;99088.50;5019291;28;20226;-78
2024/02/19 00:24:09;;;;;;;0.80;0.57;;;;;;;8.72;100.00;99090.22;5018399;28;20212;-78
2024/02/19 00:26:37;;;;;;;0.60;0.60;;;;;;;8.74;100.00;99082.22;5019235;28;20215;-78
2024/02/19 00:29:04;;;;;;;0.50;0.50;;;;;;;8.76;100.00;99085.66;5018426;28;20212;-78
2024/02/19 00:31:32;;;;;;;2.17;0.40;;;;;;;8.73;100.00;99085.78;5018332;28;20719;-78
2024/02/19 00:33:58;;;;;;;0.40;0.40;;;;;;;8.75;100.00;99086.56;5018816;28;20245;-78
2024/02/19 00:36:25;;;;;;;0.40;0.40;;;;;;;8.76;100.00;99080.38;5018983;28;20698;-78
2024/02/19 00:38:51;;;;;;;0.50;0.50;;;;;;;8.76;100.00;99088.28;5018111;28;20221;-78
2024/02/19 00:41:19;;;;;;;0.40;0.40;;;;;;;8.74;100.00;99082.22;5019006;28;20221;-78
2024/02/19 00:43:47;;;;;;;0.30;0.30;;;;;;;8.78;100.00;99084.66;5018342;28;20242;-79
2024/02/19 00:46:13;;;;;;;0.33;0.30;;;;;;;8.79;100.00;99082.84;5018943;28;20667;-78
2024/02/19 00:48:40;;;;;;;0.30;0.30;;;;;;;8.81;100.00;99079.22;5019628;28;20219;-78
2024/02/19 00:51:06;;;;;;;1.47;0.50;;;;;;;8.84;100.00;99083.50;5018011;28;20214;-78
2024/02/19 00:53:33;;;;;;;0.40;0.40;;;;;;;8.82;100.00;99082.72;5018272;28;20214;-78
2024/02/19 00:55:59;;;;;;;0.40;0.40;;;;;;;8.82;100.00;99080.09;5017885;28;20676;-78
2024/02/19 00:58:26;;;;;;;0.50;0.40;;;;;;;8.82;100.00;99069.53;5017544;28;20296;-78
2024/02/19 01:00:55;;;;;;;0.63;0.50;;;;;;;8.82;100.00;99080.91;5017366;28;20286;-78
2024/02/19 01:03:21;;;;;;;0.50;0.50;;;;;;;8.81;100.00;99088.94;5017635;28;20235;-78
2024/02/19 01:05:48;;;;;;;0.50;0.50;;;;;;;8.80;100.00;99095.09;5017213;28;20592;-78
2024/02/19 01:08:15;;;;;;;0.50;0.50;;;;;;;8.81;100.00;99099.47;5017760;28;20215;-78
2024/02/19 01:10:41;;;;;;;1.10;0.67;;;;;;;8.81;100.00;99097.66;5018202;28;20584;-78
2024/02/19 01:13:08;;;;;;;0.67;0.53;;;;;;;8.81;100.00;99094.19;5017451;28;20322;-78
2024/02/19 01:15:34;;;;;;;0.90;0.57;;;;;;;8.82;100.00;99094.09;5017601;28;20307;-78
2024/02/19 01:18:02;;;;;;;0.50;0.50;;;;;;;8.81;100.00;99099.47;5017504;28;20207;-78
2024/02/19 01:20:29;;;;;;;0.57;0.57;;;;;;;8.80;100.00;99098.59;5017388;28;20604;-78
2024/02/19 01:22:55;;;;;;;0.70;0.70;;;;;;;8.78;100.00;99095.19;5017803;28;20242;-78
2024/02/19 01:25:22;;;;;;;0.93;0.90;;;;;;;8.82;100.00;99101.19;5016887;28;20665;-78
2024/02/19 01:27:48;;;;;;;0.67;0.67;;;;;;;8.86;100.00;99102.72;5015992;28;20227;-78
2024/02/19 01:30:16;;;;;;;1.13;1.00;;;;;;;8.83;100.00;99105.50;5017247;28;20250;-78
2024/02/19 01:32:43;;;;;;;0.90;0.73;;;;;;;8.83;100.00;99097.59;5016747;28;20326;-79
2024/02/19 01:35:11;;;;;;;1.13;1.03;;;;;;;8.85;100.00;99090.47;5016655;28;20211;-78
2024/02/19 01:37:38;;;;;;;1.13;1.03;;;;;;;8.83;100.00;99082.66;5016535;28;20782;-78
2024/02/19 01:40:08;;;;;;;1.13;1.00;;;;;;;8.81;100.00;99083.66;5017042;28;20235;-78
2024/02/19 01:42:35;;;;;;;1.40;1.20;;;;;;;8.83;100.00;99084.44;5016275;28;20233;-78
2024/02/19 01:45:02;;;;;;;2.00;1.10;;;;;;;8.81;100.00;99078.38;5017328;28;20224;-78
2024/02/19 01:47:30;;;;;;;1.40;1.10;;;;;;;8.81;100.00;99084.50;5016677;28;20210;-78
2024/02/19 01:49:57;;;;;;;1.80;1.17;;;;;;;8.80;100.00;99076.66;5017385;28;20220;-78
2024/02/19 01:52:26;;;;;;;2.60;1.40;;;;;;;8.84;100.00;99078.22;5016348;28;20223;-78
2024/02/19 01:54:53;;;;;;;1.10;1.00;;;;;;;8.84;100.00;99076.47;5016753;28;20805;-78
2024/02/19 01:57:20;;;;;;;2.60;1.40;;;;;;;8.83;100.00;99076.53;5016874;28;20212;-78
2024/02/19 01:59:47;;;;;;;1.70;1.27;;;;;;;8.80;100.00;99087.19;5014907;28;20239;-78
2024/02/19 02:02:15;;;;;;;2.40;1.30;;;;;;;8.85;100.00;99093.09;5015302;28;20235;-79
2024/02/19 02:04:41;;;;;;;2.93;1.17;;;;;;;8.84;100.00;99088.78;5015263;28;20217;-78
2024/02/19 02:07:08;;;;;;;1.70;1.17;;;;;;;8.86;100.00;99082.50;5018081;28;20238;-78
2024/02/19 02:09:37;;;;;;;1.27;1.10;;;;;;;8.84;100.00;99076.47;5018898;28;20212;-78
2024/02/19 02:12:04;;;;;;;1.70;1.23;;;;;;;8.82;100.00;99080.91;5018486;28;20239;-78
2024/02/19 02:14:31;;;;;;;1.47;1.17;;;;;;;8.83;100.00;99090.56;5018508;28;20210;-78
2024/02/19 02:16:57;;;;;;;1.60;1.40;;;;;;;8.81;100.00;99089.75;5019402;28;20213;-78
2024/02/19 02:19:24;;;;;;;2.83;1.63;;;;;;;8.82;100.00;99086.19;5018503;28;20216;-78
2024/02/19 02:21:50;;;;;;;1.70;1.40;;;;;;;8.84;100.00;99094.91;5018432;28;20571;-78
2024/02/19 02:24:18;;;;;;;3.00;1.60;;;;;;;8.86;100.00;99081.63;5017672;28;20216;-79
2024/02/19 02:26:46;;;;;;;1.87;1.50;;;;;;;8.84;100.00;99083.50;5017117;28;20210;-78
2024/02/19 02:29:12;;;;;;;1.50;1.37;;;;;;;8.79;100.00;99096.91;5017337;28;20211;-78
2024/02/19 02:31:39;;;;;;;3.53;1.63;;;;;;;8.77;100.00;99088.22;5018017;28;20232;-78
2024/02/19 02:34:05;;;;;;;2.73;1.73;;;;;;;8.76;100.00;99080.38;5019934;28;20211;-78
2024/02/19 02:36:33;;;;;;;2.70;1.93;;;;;;;8.75;100.00;99083.94;5021656;28;20216;-79
2024/02/19 02:39:00;;;;;;;2.30;1.80;;;;;;;8.76;100.00;99088.28;5021166;28;20265;-79
2024/02/19 02:41:26;;;;;;;2.30;2.10;;;;;;;8.74;100.00;99090.13;5021507;28;20231;-78
2024/02/19 02:43:54;;;;;;;1.67;1.57;;;;;;;8.74;100.00;99087.47;5022612;28;20215;-78
2024/02/19 02:46:21;;;;;;;3.93;1.80;;;;;;;8.72;100.00;99090.22;5022035;28;20211;-79
2024/02/19 02:48:47;;;;;;;2.73;1.80;;;;;;;8.72;100.00;99084.06;5022269;28;20266;-79
2024/02/19 02:51:14;;;;;;;2.23;1.87;;;;;;;8.70;100.00;99085.94;5022067;28;20222;-78
2024/02/19 02:53:41;;;;;;;2.17;1.90;;;;;;;8.70;100.00;99085.94;5021327;28;20264;-79
2024/02/19 02:56:07;;;;;;;2.83;2.17;;;;;;;8.71;100.00;99090.28;5020916;28;20232;-78
2024/02/19 02:58:34;;;;;;;4.00;2.30;;;;;;;8.73;100.00;99085.78;5020844;28;20220;-79
2024/02/19 03:01:02;;;;;;;3.27;2.13;;;;;;;8.73;100.00;99085.78;5021170;28;20237;-79
2024/02/19 03:03:32;;;;;;;4.03;2.10;;;;;;;8.74;100.00;99087.47;5021876;28;20206;-78
2024/02/19 03:05:59;;;;;;;2.27;1.80;;;;;;;8.73;100.00;99081.38;5023361;28;20241;-79
2024/02/19 03:08:25;;;;;;;3.30;2.20;;;;;;;8.72;100.00;99092.84;5021873;28;20687;-78
2024/02/19 03:10:52;;;;;;;3.30;2.30;;;;;;;8.75;100.00;99084.78;5023437;28;20571;-79
2024/02/19 03:13:18;;;;;;;3.07;1.77;;;;;;;8.76;100.00;99085.66;5022600;28;20237;-79
2024/02/19 03:15:45;;;;;;;4.13;2.40;;;;;;;8.75;100.00;99087.41;5022326;28;20216;-78
2024/02/19 03:18:13;;;;;;;3.43;2.20;;;;;;;8.75;100.00;99083.94;5022255;28;20218;-78
2024/02/19 03:20:40;;;;;;;2.50;2.00;;;;;;;8.75;100.00;99086.56;5022320;28;20235;-78
2024/02/19 03:23:06;;;;;;;4.80;2.03;;;;;;;8.74;100.00;99080.44;5021514;28;20234;-78
2024/02/19 03:25:33;;;;;;;3.77;2.33;;;;;;;8.75;100.00;99078.69;5020670;28;20208;-78
2024/02/19 03:28:00;;;;;;;3.57;2.43;;;;;;;8.77;100.00;99082.09;5020178;28;20221;-78
2024/02/19 03:30:29;;;;;;;5.87;3.70;;;;;;;8.80;100.00;99076.66;5020655;28;20219;-78
2024/02/19 03:32:56;;;;;;;3.90;3.27;;;;;;;8.80;100.00;99082.78;5020515;28;20301;-78
2024/02/19 03:35:23;;;;;;;6.00;2.80;;;;;;;8.82;100.00;99077.44;5021036;28;20217;-78
2024/02/19 03:37:50;;;;;;;5.47;2.90;;;;;;;8.81;100.00;99076.59;5020705;28;20223;-78
2024/02/19 03:40:17;;;;;;;5.07;2.80;;;;;;;8.81;100.00;99078.38;5020752;28;20609;-78
2024/02/19 03:42:44;;;;;;;5.33;2.93;;;;;;;8.80;100.00;99084.56;5020621;28;20237;-78
2024/02/19 03:45:11;;;;;;;4.37;2.97;;;;;;;8.81;100.00;99067.84;5020006;28;20215;-78
2024/02/19 03:47:37;;;;;;;4.03;3.17;;;;;;;8.78;100.00;99078.50;5020327;28;20260;-78
2024/02/19 03:50:05;;;;;;;4.93;3.17;;;;;;;8.76;100.00;99081.22;5020412;28;20227;-78
2024/02/19 03:52:32;;;;;;;4.37;2.97;;;;;;;8.76;100.00;99075.09;5021171;28;20251;-78
2024/02/19 03:54:59;;;;;;;5.23;2.80;;;;;;;8.75;100.00;99078.69;5020275;28;20301;-78
2024/02/19 03:57:27;;;;;;;4.47;3.27;;;;;;;8.75;100.00;99078.69;5018548;28;20644;-78
2024/02/19 03:59:54;;;;;;;5.07;3.30;;;;;;;8.76;100.00;99094.38;5020361;28;20211;-78
2024/02/19 04:02:20;;;;;;;6.17;3.50;;;;;;;8.75;100.00;99089.22;5020478;28;20237;-78
2024/02/19 04:04:47;;;;;;;5.57;3.47;;;;;;;8.71;100.00;99082.38;5020351;28;20212;-79
2024/02/19 04:07:13;;;;;;;5.27;3.50;;;;;;;8.72;100.00;99094.63;5019843;28;20208;-79
2024/02/19 04:09:41;;;;;;;4.37;2.70;;;;;;;8.71;100.00;99093.78;5020116;28;20211;-78
2024/02/19 04:12:09;;;;;;;3.93;2.80;;;;;;;8.69;100.00;99095.59;5020226;28;20230;-79
2024/02/19 04:14:35;;;;;;;3.67;2.57;;;;;;;8.74;100.00;99092.75;5020186;28;20208;-78
2024/02/19 04:17:02;;;;;;;4.57;2.97;;;;;;;8.74;100.00;99092.75;5019559;28;20218;-78
2024/02/19 04:19:29;;;;;;;3.50;2.60;;;;;;;8.77;100.00;99098.75;5019832;28;20587;-79
2024/02/19 04:21:55;;;;;;;3.97;3.10;;;;;;;8.77;100.00;99093.50;5020568;28;20235;-78
2024/02/19 04:24:22;;;;;;;4.13;2.90;;;;;;;8.78;100.00;99094.31;5020257;28;20220;-79
2024/02/19 04:26:50;;;;;;;4.50;3.37;;;;;;;8.76;100.00;99097.03;5019944;28;20674;-79
2024/02/19 04:29:16;;;;;;;4.93;3.10;;;;;;;8.77;100.00;99097.91;5019946;28;20241;-78
2024/02/19 04:31:43;;;;;;;3.80;2.63;;;;;;;8.78;100.00;99100.47;5020269;28;20239;-78
2024/02/19 04:34:10;;;;;;;4.17;2.93;;;;;;;8.80;100.00;99103.00;5020858;28;20311;-78
2024/02/19 04:36:36;;;;;;;3.53;2.83;;;;;;;8.78;100.00;99104.88;5020218;28;20280;-79
2024/02/19 04:39:03;;;;;;;3.87;2.67;;;;;;;8.73;100.00;99112.13;5019629;28;20224;-79
2024/02/19 04:41:29;;;;;;;5.03;3.40;;;;;;;8.69;100.00;99110.59;5018713;28;20248;-79
2024/02/19 04:43:57;;;;;;;6.53;2.83;;;;;;;8.66;100.00;99122.13;5019377;28;20226;-79
2024/02/19 04:46:24;;;;;;;5.57;3.07;;;;;;;8.66;100.00;99114.22;5018385;28;20238;-79
2024/02/19 04:48:50;;;;;;;5.53;2.87;;;;;;;8.64;100.00;99117.84;5018440;28;20246;-78
2024/02/19 04:51:17;;;;;;;6.07;3.13;;;;;;;8.59;100.00;99114.56;5019582;28;20244;-79
2024/02/19 04:53:43;;;;;;;5.57;3.17;;;;;;;8.57;100.00;99119.06;5018798;28;20208;-79
2024/02/19 04:56:14;;;;;;;5.80;3.60;;;;;;;8.60;100.00;99121.53;5018422;28;20210;-79
2024/02/19 04:58:41;;;;;;;4.20;3.20;;;;;;;8.61;100.00;99131.13;5017282;28;20199;-79
2024/02/19 05:01:08;;;;;;;9.20;3.40;;;;;;;8.62;100.00;99124.97;5014525;28;20232;-79
2024/02/19 05:03:35;;;;;;;4.90;3.03;;;;;;;8.60;100.00;99126.81;5016408;28;20210;-78
2024/02/19 05:06:01;;;;;;;5.73;3.43;;;;;;;8.65;100.00;99124.81;5015285;28;20587;-78
2024/02/19 05:08:28;;;;;;;4.90;3.47;;;;;;;8.61;100.00;99133.78;5015243;28;20584;-78
2024/02/19 05:10:55;;;;;;;6.90;3.23;;;;;;;8.62;100.00;99135.50;5016872;28;20530;-78
2024/02/19 05:13:21;;;;;;;5.63;3.60;;;;;;;8.62;100.00;99140.78;5016070;28;20227;-78
2024/02/19 05:15:48;;;;;;;5.77;3.40;;;;;;;8.62;100.00;99143.41;5016962;28;20213;-78
2024/02/19 05:18:16;;;;;;;6.40;3.43;;;;;;;8.61;100.00;99139.91;5016484;28;20211;-78
2024/02/19 05:20:42;;;;;;;7.27;3.83;;;;;;;8.61;100.00;99134.66;5016976;28;20768;-78
2024/02/19 05:23:09;;;;;;;7.27;3.97;;;;;;;8.62;100.00;99140.78;5016641;28;20231;-78
2024/02/19 05:25:35;;;;;;;6.80;3.43;;;;;;;8.59;100.00;99146.19;5016217;28;20233;-78
2024/02/19 05:28:02;;;;;;;4.87;3.73;;;;;;;8.58;100.00;99140.03;5015911;28;20218;-78
2024/02/19 05:30:29;;;;;;;6.73;3.60;;;;;;;8.58;100.00;99139.19;5015920;28;20214;-78
2024/02/19 05:32:55;;;;;;;5.23;3.53;;;;;;;8.57;100.00;99138.34;5015733;28;20622;-78
2024/02/19 05:35:24;;;;;;;5.80;3.43;;;;;;;8.55;100.00;99147.22;5017446;28;20210;-78
2024/02/19 05:37:50;;;;;;;5.07;3.67;;;;;;;8.54;100.00;99142.88;5015915;28;20730;-78
2024/02/19 05:40:17;;;;;;;4.73;3.30;;;;;;;8.50;100.00;99141.34;5014850;28;20239;-78
2024/02/19 05:42:43;;;;;;;7.27;3.30;;;;;;;8.46;100.00;99156.41;5015264;28;20248;-78
2024/02/19 05:45:11;;;;;;;7.33;3.87;;;;;;;8.45;100.00;99154.69;5016070;28;20215;-78
2024/02/19 05:47:37;;;;;;;6.37;3.47;;;;;;;8.47;100.00;99152.00;5015415;28;20304;-78
2024/02/19 05:50:04;;;;;;;9.80;3.33;;;;;;;8.48;100.00;99153.69;5015968;28;20215;-78
2024/02/19 05:52:32;;;;;;;4.47;3.33;;;;;;;8.50;100.00;99149.25;5014977;28;20223;-78
2024/02/19 05:54:59;;;;;;;4.70;2.80;;;;;;;8.47;100.00;99152.00;5013931;28;20595;-78
2024/02/19 05:57:25;;;;;;;5.70;2.53;;;;;;;8.44;100.00;99162.69;5013723;28;20211;-78
2024/02/19 05:59:52;;;;;;;5.57;2.93;;;;;;;8.41;100.00;99163.66;5013943;28;20602;-78
2024/02/19 06:02:19;;;;;;;4.83;3.10;;;;;;;8.43;100.00;99166.22;5014188;28;20237;-78
2024/02/19 06:04:45;;;;;;;4.90;2.90;;;;;;;8.44;100.00;99176.69;5013893;28;20283;-78
2024/02/19 06:07:12;;;;;;;4.67;3.03;;;;;;;8.51;100.00;99174.66;5014103;28;20592;-78
2024/02/19 06:09:41;;;;;;;5.57;2.87;;;;;;;8.49;100.00;99176.47;5016861;28;20209;-78
2024/02/19 06:12:08;;;;;;;5.37;2.77;;;;;;;8.49;100.00;99180.00;5017657;28;20227;-78
2024/02/19 06:14:34;;;;;;;6.27;2.90;;;;;;;8.47;100.00;99167.81;5019299;28;20217;-78
2024/02/19 06:17:01;;;;;;;4.60;2.60;;;;;;;8.50;100.00;99178.22;5019312;28;20214;-78
2024/02/19 06:19:27;;;;;;;5.20;2.70;;;;;;;8.56;100.00;99183.22;5017897;28;20247;-78
2024/02/19 06:21:54;;;;;;;5.20;2.80;;;;;;;8.53;100.00;99180.69;5017838;28;20326;-78
2024/02/19 06:24:20;;;;;;;5.03;2.67;;;;;;;8.51;100.00;99188.66;5018723;28;20215;-78
2024/02/19 06:26:48;;;;;;;2.57;2.30;;;;;;;8.56;100.00;99193.75;5018822;28;20221;-78
2024/02/19 06:29:14;;;;;;;4.87;2.40;;;;;;;8.58;100.00;99191.91;5018603;28;20221;-78
2024/02/19 06:31:44;;;;;;;4.50;2.67;;;;;;;8.57;100.00;99196.31;5017936;28;20231;-78
2024/02/19 06:34:10;;;;;;;3.70;2.33;;;;;;;8.59;100.00;99204.16;5017969;28;20210;-78
2024/02/19 06:36:37;;;;;;;4.67;2.60;;;;;;;8.56;100.00;99212.19;5018233;28;20223;-78
2024/02/19 06:39:04;;;;;;;3.83;2.27;;;;;;;8.59;100.00;99219.97;5018087;28;20218;-78
2024/02/19 06:41:30;;;;;;;3.67;2.27;;;;;;;8.57;100.00;99214.75;5018059;28;20322;-78
2024/02/19 06:43:58;;;;;;;3.70;2.20;;;;;;;8.57;100.00;99219.19;5018666;28;20223;-78
2024/02/19 06:46:25;;;;;;;4.87;2.50;;;;;;;8.57;100.00;99229.72;5017910;28;20237;-78
2024/02/19 06:48:51;;;;;;;3.03;2.20;;;;;;;8.59;100.00;99230.50;5018284;28;20223;-78
2024/02/19 06:51:18;;;;;;;6.70;2.80;;;;;;;8.60;100.00;99225.16;5017039;28;20383;-78
2024/02/19 06:53:44;;;;;;;2.53;2.20;;;;;;;8.60;100.00;99240.97;5017362;28;20687;-78
2024/02/19 06:56:12;;;;;;;3.93;2.43;;;;;;;8.61;100.00;99233.91;5017513;28;20213;-78
2024/02/19 06:58:38;;;;;;;4.10;2.60;;;;;;;8.59;100.00;99243.69;5017896;28;20586;-78
2024/02/19 07:01:06;;;;;;;2.80;2.40;;;;;;;8.62;100.00;99246.19;5018632;28;20622;-78
2024/02/19 07:03:33;;;;;;;4.87;2.80;;;;;;;8.64;100.00;99249.59;5019758;28;20207;-79
2024/02/19 07:05:59;;;;;;;4.80;2.43;;;;;;;8.64;100.00;99249.59;5020516;28;20254;-78
2024/02/19 07:08:26;;;;;;;2.93;2.30;;;;;;;8.64;100.00;99247.81;5019314;28;20211;-78
2024/02/19 07:10:52;;;;;;;3.80;2.20;;;;;;;8.68;100.00;99245.88;5019754;28;20221;-79
2024/02/19 07:13:19;;;;;;;3.27;2.00;;;;;;;8.66;100.00;99250.38;5018724;28;20230;-79
2024/02/19 07:15:45;;;;;;;5.20;2.90;;;;;;;8.69;100.00;99253.75;5016770;28;20220;-79
2024/02/19 07:18:13;;;;;;;3.20;2.03;;;;;;;8.71;100.00;99251.03;5016055;28;20218;-79
2024/02/19 07:20:40;;;;;;;2.53;2.07;;;;;;;8.72;100.00;99264.16;5013519;28;20212;-78
2024/02/19 07:23:06;;;;;;;3.23;2.03;;;;;;;8.74;100.00;99266.72;5014594;28;20235;-78
2024/02/19 07:25:33;;;;;;;3.47;1.90;;;;;;;8.77;100.00;99267.47;5019448;28;20215;-79
2024/02/19 07:27:59;;;;;;;2.30;1.80;;;;;;;8.75;100.00;99271.91;5018291;28;20236;-77
2024/02/19 07:30:26;;;;;;;3.93;1.90;;;;;;;8.77;100.00;99277.13;5019166;28;20208;-78
2024/02/19 07:32:52;;;;;;;3.40;1.80;;;;;;;8.80;100.00;99277.84;5019469;28;20238;-78
2024/02/19 07:35:20;;;;;;;5.67;1.70;;;;;;;8.78;100.00;99276.19;5019087;28;20245;-77
2024/02/19 07:37:47;;;;;;;3.97;2.07;;;;;;;8.79;100.00;99276.16;5019206;28;20219;-77
2024/02/19 07:40:13;;;;;;;2.57;1.90;;;;;;;8.84;100.00;99283.84;5018862;28;20213;-77
2024/02/19 07:42:40;;;;;;;3.43;1.60;;;;;;;8.89;100.00;99272.19;5018803;28;20232;-79
2024/02/19 07:45:07;;;;;;;3.00;1.77;;;;;;;8.97;100.00;99280.59;5019816;28;20211;-77
2024/02/19 07:47:34;;;;;;;2.90;1.63;;;;;;;8.93;100.00;99288.72;5019111;28;20227;-77
2024/02/19 07:50:00;;;;;;;2.80;1.70;;;;;;;8.96;100.00;99288.56;5018311;28;20222;-78
2024/02/19 07:52:28;;;;;;;3.83;1.93;;;;;;;8.94;100.00;99290.44;5017045;28;20230;-77
2024/02/19 07:54:55;;;;;;;1.20;1.10;;;;;;;8.97;100.00;99295.56;5017846;28;20215;-77
2024/02/19 07:57:21;;;;;;;2.80;1.37;;;;;;;8.96;100.00;99293.84;5017740;28;20215;-77
2024/02/19 07:59:48;;;;;;;2.63;1.53;;;;;;;8.94;100.00;99293.06;5016761;28;20226;-77
2024/02/19 08:02:14;;;;;;;2.70;0.90;;;;;;;8.94;100.00;99295.72;5016259;28;20240;-78
2024/02/19 08:04:41;;;;;;;4.60;1.30;;;;;;;8.99;100.00;99299.00;5015786;28;20212;-77
2024/02/19 08:07:07;;;;;;;1.93;1.30;;;;;;;9.02;100.00;99297.09;5015380;28;20213;-78
2024/02/19 08:09:35;;;;;;;1.77;1.10;;;;;;;9.01;100.00;99297.97;5014837;28;20283;-79
2024/02/19 08:12:02;;;;;;;2.20;1.30;;;;;;;8.95;100.00;99306.19;5017132;28;20229;-81
2024/02/19 08:14:29;;;;;;;3.80;1.37;;;;;;;8.96;100.00;99296.47;5017749;28;20696;-80
2024/02/19 08:16:55;;;;;;;3.07;1.10;;;;;;;9.00;100.00;99300.72;5020501;28;20211;-81
2024/02/19 08:19:21;;;;;;;3.40;1.30;;;;;;;8.97;100.00;99306.09;5016177;28;20214;-81
2024/02/19 08:21:49;;;;;;;1.47;1.00;;;;;;;9.04;100.00;99310.16;5015832;28;20242;-78
2024/02/19 08:24:15;;;;;;;1.63;0.93;;;;;;;9.05;100.00;99309.28;5015024;28;20211;-78
2024/02/19 08:26:43;;;;;;;2.30;1.20;;;;;;;9.08;100.00;99315.28;5014632;28;20216;-78
2024/02/19 08:29:11;;;;;;;1.57;1.10;;;;;;;9.11;100.00;99309.84;5014610;28;20219;-79
2024/02/19 08:31:37;;;;;;;3.87;1.03;;;;;;;9.13;100.00;99304.50;5013993;28;20251;-78
2024/02/19 08:34:04;;;;;;;3.00;1.00;;;;;;;9.13;100.00;99312.41;5014188;28;20215;-78
2024/02/19 08:36:32;;;;;;;1.50;0.97;;;;;;;9.11;100.00;99319.56;5014755;28;20680;-80
2024/02/19 08:38:59;;;;;;;3.57;1.00;;;;;;;9.20;100.00;99319.13;5018354;28;20208;-79
2024/02/19 08:41:26;;;;;;;3.20;1.00;;;;;;;9.22;100.00;99319.91;5017957;28;20230;-80
2024/02/19 08:43:54;;;;;;;2.90;1.17;;;;;;;9.18;100.00;99321.00;5019995;28;20709;-80
2024/02/19 08:46:20;;;;;;;2.23;1.00;;;;;;;9.20;100.00;99329.69;5016468;28;20207;-77
2024/02/19 08:48:46;;;;;;;1.93;1.33;;;;;;;9.22;100.00;99333.97;5011839;28;20212;-77
2024/02/19 08:51:14;;;;;;;1.43;1.10;;;;;;;9.23;100.00;99332.19;5012216;28;20219;-77
2024/02/19 08:53:40;;;;;;;1.00;0.90;;;;;;;9.20;100.00;99334.97;5012640;28;20205;-77
2024/02/19 08:56:07;;;;;;;2.00;1.00;;;;;;;9.20;100.00;99334.97;5012680;28;20205;-77
2024/02/19 08:58:33;;;;;;;2.37;0.90;;;;;;;9.30;100.00;99338.91;5012000;28;20207;-77
2024/02/19 09:01:01;;;;;;;2.03;1.03;;;;;;;9.33;100.00;99344.91;5012716;28;20214;-78
2024/02/19 09:03:28;;;;;;;1.20;1.00;;;;;;;9.34;100.00;99348.38;5011939;28;20232;-78
2024/02/19 09:05:54;;;;;;;1.97;1.17;;;;;;;9.41;100.00;99349.81;5012860;28;20699;-78
2024/02/19 09:08:21;;;;;;;0.90;0.80;;;;;;;9.39;100.00;99355.19;5013400;28;20239;-78
2024/02/19 09:10:48;;;;;;;2.83;1.20;;;;;;;9.35;100.00;99350.09;5013170;28;20664;-78
2024/02/19 09:13:14;;;;;;;2.77;1.00;;;;;;;9.36;100.00;99349.19;5012349;28;20640;-78
2024/02/19 09:15:41;;;;;;;1.93;1.10;;;;;;;9.44;100.00;99349.69;5013655;28;20212;-78
2024/02/19 09:18:09;;;;;;;2.50;1.10;;;;;;;9.48;100.00;99352.09;5013069;28;20217;-77
2024/02/19 09:20:35;;;;;;;3.33;1.30;;;;;;;9.51;100.00;99341.44;5013354;28;20208;-78
2024/02/19 09:23:01;;;;;;;3.53;1.40;;;;;;;9.58;100.00;99347.25;5012750;28;20262;-77
2024/02/19 09:25:28;;;;;;;2.17;1.00;;;;;;;9.63;100.00;99350.56;5013921;28;20217;-79
2024/02/19 09:27:54;;;;;;;3.83;1.10;;;;;;;9.65;100.00;99338.13;5012225;28;20571;-77
2024/02/19 09:30:21;;;;;;;2.23;1.20;;;;;;;9.69;100.00;99339.72;5013973;28;20209;-79
2024/02/19 09:32:47;;;;;;;2.40;1.40;;;;;;;9.78;100.00;99334.00;5012261;28;20237;-79
2024/02/19 09:35:16;;;;;;;2.07;1.27;;;;;;;9.74;100.00;99337.72;5012974;28;20213;-78
2024/02/19 09:37:43;;;;;;;1.10;1.00;;;;;;;9.72;100.00;99335.13;5012300;28;20212;-79
2024/02/19 09:40:13;;;;;;;1.27;0.93;;;;;;;9.80;100.00;99342.72;5012671;28;20216;-79
2024/02/19 09:42:39;;;;;;;3.40;1.47;;;;;;;9.85;100.00;99346.84;5014705;28;20236;-79
2024/02/19 09:45:10;;;;;;;2.60;1.20;;;;;;;9.84;100.00;99344.28;5016786;28;20560;-79
2024/02/19 09:47:39;;;;;;;3.57;0.97;;;;;;;9.86;100.00;99347.69;5017365;28;20216;-79
2024/02/19 09:50:09;;;;;;;3.57;1.00;;;;;;;9.87;100.00;99345.00;5016637;28;20220;-79
2024/02/19 09:52:39;;;;;;;3.33;1.10;;;;;;;9.94;100.00;99345.53;5016607;28;20235;-79
2024/02/19 09:55:07;;;;;;;3.57;1.17;;;;;;;9.94;100.00;99361.38;5017327;28;20208;-79
2024/02/19 09:57:33;;;;;;;1.00;0.90;;;;;;;10.02;100.00;99359.22;5023081;28;20266;-78
2024/02/19 10:00:03;;;;;;;2.83;1.00;;;;;;;10.03;100.00;99364.47;5025463;28;20208;-81
2024/02/19 10:02:30;;;;;;;2.20;1.10;;;;;;;10.02;100.00;99356.59;5025482;28;20237;-81
2024/02/19 10:04:59;;;;;;;4.03;1.20;;;;;;;10.01;100.00;99357.53;5024136;28;20292;-81
2024/02/19 10:07:25;;;;;;;3.60;1.20;;;;;;;10.07;100.00;99352.84;5022170;28;20215;-80
2024/02/19 10:09:53;;;;;;;1.60;1.27;;;;;;;10.03;99.87;99358.31;5024523;28;20280;-80
2024/02/19 10:12:20;;;;;;;4.07;1.20;;;;;;;10.05;100.00;99369.69;5018350;28;20229;-79
2024/02/19 10:14:47;;;;;;;1.58;1.10;;;;;;;10.09;100.00;99366.84;5017912;28;20353;-80
2024/02/19 10:17:20;;;;;;;1.43;1.10;;;;;;;10.10;100.00;99367.69;5017524;28;20237;-79
2024/02/19 10:19:47;;;;;;;2.47;1.13;;;;;;;10.12;100.00;99379.91;5017004;28;20573;-78
2024/02/19 10:22:16;;;;;;;3.08;1.38;;;;;;;10.00;100.00;99372.53;5015408;28;20490;-79
2024/02/19 10:24:43;;;;;;;2.10;1.30;;;;;;;10.09;99.59;99373.91;5016614;28;20215;-79
2024/02/19 10:27:11;;;;;;;2.00;1.20;;;;;;;9.97;99.57;99377.94;5016722;28;20220;-79
2024/02/19 10:29:37;;;;;;;2.50;1.33;;;;;;;9.90;99.92;99380.97;5017029;28;20211;-79
2024/02/19 10:32:05;;;;;;;3.87;1.20;;;;;;;9.85;100.00;99382.97;5016899;28;20254;-79
2024/02/19 10:34:31;;;;;;;2.37;1.27;;;;;;;9.89;100.00;99395.94;5014312;28;20688;-79
2024/02/19 10:36:58;;;;;;;3.37;1.20;;;;;;;9.82;100.00;99386.59;5016857;28;20210;-79
2024/02/19 10:39:25;;;;;;;2.90;1.13;;;;;;;9.76;100.00;99394.81;5017189;28;20596;-81
2024/02/19 10:41:52;;;;;;;5.33;1.40;;;;;;;9.75;100.00;99394.88;5015425;28;20236;-80
2024/02/19 10:44:21;;;;;;;3.03;1.17;;;;;;;9.69;100.00;99403.06;5015414;28;20216;-79
2024/02/19 10:46:48;;;;;;;4.37;1.33;;;;;;;9.72;99.29;99387.09;5015544;28;20219;-80
2024/02/19 10:49:19;;;;;;;1.63;1.07;;;;;;;9.63;98.17;99387.50;5015859;28;20212;-80
2024/02/19 10:51:47;;;;;;;2.57;1.10;;;;;;;9.62;100.00;99397.19;5015309;28;20230;-80
2024/02/19 10:54:18;;;;;;;2.93;1.57;;;;;;;9.71;100.00;99398.56;5015165;28;20208;-80
2024/02/19 10:56:45;;;;;;;2.10;1.17;;;;;;;9.71;100.00;99399.44;5015633;28;20254;-79
2024/02/19 10:59:13;;;;;;;4.47;1.10;;;;;;;9.80;99.55;99384.94;5015507;28;20214;-79
2024/02/19 11:01:43;;;;;;;2.20;1.63;;;;;;;9.98;99.42;99384.09;5015617;28;20333;-80
2024/02/19 11:04:19;;;;;;;1.67;1.30;;;;;;;9.99;98.59;99376.13;5015839;28;20237;-80
2024/02/19 11:06:46;;;;;;;1.37;1.00;;;;;;;10.01;97.26;99373.38;5014043;28;20216;-78
2024/02/19 11:09:13;;;;;;;2.87;1.13;;;;;;;9.99;96.64;99365.53;5014894;28;20293;-79
2024/02/19 11:11:46;;;;;;;2.37;1.10;;;;;;;10.08;94.22;99349.28;5015036;28;20256;-78
2024/02/19 11:14:21;;;;;;;2.73;1.13;;;;;;;10.16;91.16;99335.72;5015277;28;20212;-79
2024/02/19 11:16:49;;;;;;;1.27;0.80;;;;;;;10.26;92.31;99337.81;5015062;28;20241;-82
2024/02/19 11:19:15;;;;;;;3.27;1.07;;;;;;;10.44;92.37;99330.75;5015119;28;20205;-79
2024/02/19 11:21:44;;;;;;;3.57;1.00;;;;;;;10.32;87.44;99310.22;5015016;28;20231;-79
2024/02/19 11:24:10;;;;;;;2.87;1.17;;;;;;;10.14;87.38;99301.44;5015007;28;20600;-79
2024/02/19 11:26:40;;;;;;;3.33;1.10;;;;;;;10.23;92.08;99331.84;5014498;28;20313;-79
2024/02/19 11:29:07;;;;;;;3.83;1.20;;;;;;;10.28;92.55;99325.38;5015223;28;20659;-80
2024/02/19 11:31:35;;;;;;;2.57;1.27;;;;;;;10.29;92.31;99323.59;5016673;28;20258;-80
2024/02/19 11:34:03;;;;;;;3.33;1.20;;;;;;;10.23;93.05;99315.97;5015968;28;20264;-84